Time;durP1;ratioP1;P1;durP2;ratioP2;P2;SDS_P1;SDS_P2;PMS_P1;PMS_P2;Temp;Humidity;BMP_temperature;BMP_pressure;BME280_temperature;BME280_humidity;BME280_pressure;Samples;Min_cycle;Max_cycle;Signal;HPM_P1;HPM_P2
2022/06/21 00:02:21;;;;;;;3.27;2.90;;;;;;;;;;5068867;28;24421;-47
2022/06/21 00:04:46;;;;;;;3.50;3.20;;;;;;;;;;5066663;28;24982;-47
2022/06/21 00:07:14;;;;;;;5.22;3.20;;;;;;;;;;5071253;28;24472;-47
2022/06/21 00:09:39;;;;;;;3.40;3.00;;;;;;;;;;5069829;28;24803;-46
2022/06/21 00:12:04;;;;;;;4.33;2.90;;;;;;;;;;5072903;28;24522;-47
2022/06/21 00:14:29;;;;;;;3.70;2.70;;;;;;;;;;5066807;28;24419;-47
2022/06/21 00:16:55;;;;;;;3.30;3.00;;;;;;;;;;5073555;28;25053;-47
2022/06/21 00:19:22;;;;;;;3.10;2.90;;;;;;;;;;5070408;28;25005;-47
2022/06/21 00:21:47;;;;;;;2.70;2.50;;;;;;;;;;5070938;28;24418;-46
2022/06/21 00:24:13;;;;;;;2.90;2.70;;;;;;;;;;5064780;28;24537;-47
2022/06/21 00:26:38;;;;;;;2.97;2.67;;;;;;;;;;5072600;28;24426;-47
2022/06/21 00:29:03;;;;;;;3.00;2.80;;;;;;;;;;5084200;28;24437;-47
2022/06/21 00:31:30;;;;;;;3.40;3.08;;;;;;;;;;5079339;28;24502;-47
2022/06/21 00:33:56;;;;;;;3.60;3.30;;;;;;;;;;5065290;28;24429;-47
2022/06/21 00:36:26;;;;;;;3.50;2.77;;;;;;;;;;5067337;28;24817;-47
2022/06/21 00:38:53;;;;;;;3.38;2.88;;;;;;;;;;5068227;28;24424;-48
2022/06/21 00:41:19;;;;;;;4.05;3.13;;;;;;;;;;5062896;28;24437;-47
2022/06/21 00:43:47;;;;;;;3.00;2.70;;;;;;;;;;5068041;28;24422;-47
2022/06/21 00:46:31;;;;;;;3.88;3.08;;;;;;;;;;5067926;28;24465;-46
2022/06/21 00:48:56;;;;;;;4.05;3.30;;;;;;;;;;5066649;28;24418;-48
2022/06/21 00:51:25;;;;;;;3.50;3.20;;;;;;;;;;5075021;28;24853;-47
2022/06/21 00:53:53;;;;;;;3.28;2.97;;;;;;;;;;5076451;28;24415;-47
2022/06/21 00:56:23;;;;;;;3.50;3.30;;;;;;;;;;5063848;28;24450;-47
2022/06/21 00:58:48;;;;;;;3.30;3.00;;;;;;;;;;5056028;28;24449;-47
2022/06/21 01:01:27;;;;;;;3.30;3.00;;;;;;;;;;5071463;28;24976;-47
2022/06/21 01:04:04;;;;;;;3.50;3.20;;;;;;;;;;5082200;28;24427;-45
2022/06/21 01:06:34;;;;;;;3.40;3.20;;;;;;;;;;5071086;28;24507;-46
2022/06/21 01:09:01;;;;;;;4.35;3.30;;;;;;;;;;5067904;28;24431;-47
2022/06/21 01:11:30;;;;;;;3.90;3.30;;;;;;;;;;5054303;28;25013;-47
2022/06/21 01:13:57;;;;;;;3.10;2.90;;;;;;;;;;5067101;28;24560;-45
2022/06/21 01:16:23;;;;;;;3.17;2.97;;;;;;;;;;5070513;28;24513;-46
2022/06/21 01:18:48;;;;;;;3.50;3.20;;;;;;;;;;5069083;28;24418;-46
2022/06/21 01:21:15;;;;;;;3.37;3.07;;;;;;;;;;5081103;28;25038;-45
2022/06/21 01:23:40;;;;;;;3.20;2.90;;;;;;;;;;5068635;28;24422;-47
2022/06/21 01:26:15;;;;;;;3.60;3.30;;;;;;;;;;5064802;28;24441;-47
2022/06/21 01:28:41;;;;;;;3.87;3.20;;;;;;;;;;5063320;28;24427;-47
2022/06/21 01:31:06;;;;;;;3.57;3.30;;;;;;;;;;5066995;28;24776;-46
2022/06/21 01:33:34;;;;;;;3.72;3.42;;;;;;;;;;5079137;28;24426;-47
2022/06/21 01:36:00;;;;;;;3.45;3.03;;;;;;;;;;5084029;28;24434;-47
2022/06/21 01:38:28;;;;;;;3.88;3.30;;;;;;;;;;5068220;28;24446;-47
2022/06/21 01:40:55;;;;;;;3.83;3.33;;;;;;;;;;5064167;28;25847;-47
2022/06/21 01:43:22;;;;;;;3.22;3.03;;;;;;;;;;5076436;28;24990;-46
2022/06/21 01:45:58;;;;;;;3.30;3.00;;;;;;;;;;5080862;28;24976;-46
2022/06/21 01:48:28;;;;;;;3.75;3.20;;;;;;;;;;5072970;28;24856;-46
2022/06/21 01:50:54;;;;;;;4.10;3.42;;;;;;;;;;5066082;28;24419;-49
2022/06/21 01:53:21;;;;;;;3.33;3.03;;;;;;;;;;5072204;28;24521;-47
2022/06/21 01:55:55;;;;;;;4.20;3.72;;;;;;;;;;5065849;28;24476;-47
2022/06/21 01:58:29;;;;;;;3.58;3.28;;;;;;;;;;5073564;28;24423;-46
2022/06/21 02:01:05;;;;;;;5.80;4.00;;;;;;;;;;5068820;28;24970;-47
2022/06/21 02:03:33;;;;;;;4.38;3.80;;;;;;;;;;5071264;28;24819;-47
2022/06/21 02:05:59;;;;;;;4.07;3.75;;;;;;;;;;5069694;28;24427;-47
2022/06/21 02:08:28;;;;;;;4.28;3.88;;;;;;;;;;5078435;28;24842;-47
2022/06/21 02:10:57;;;;;;;4.28;3.97;;;;;;;;;;5063077;28;24476;-47
2022/06/21 02:13:25;;;;;;;4.03;3.80;;;;;;;;;;5064322;28;24773;-47
2022/06/21 02:15:55;;;;;;;5.70;4.33;;;;;;;;;;5067760;28;24422;-47
2022/06/21 02:18:20;;;;;;;4.22;3.83;;;;;;;;;;5067231;28;24564;-47
2022/06/21 02:20:46;;;;;;;4.10;3.70;;;;;;;;;;5066823;28;24529;-47
2022/06/21 02:23:12;;;;;;;4.40;4.00;;;;;;;;;;5071447;28;24504;-47
2022/06/21 02:25:39;;;;;;;4.10;3.80;;;;;;;;;;5065243;28;24415;-47
2022/06/21 02:28:05;;;;;;;4.40;4.00;;;;;;;;;;5063210;28;24430;-47
2022/06/21 02:30:31;;;;;;;4.20;3.90;;;;;;;;;;5057588;28;24572;-47
2022/06/21 02:32:58;;;;;;;4.10;3.80;;;;;;;;;;5066682;28;24505;-48
2022/06/21 02:35:32;;;;;;;4.38;3.90;;;;;;;;;;5074410;28;25052;-47
2022/06/21 02:37:59;;;;;;;4.05;3.75;;;;;;;;;;5084236;28;24551;-48
2022/06/21 02:40:34;;;;;;;4.20;3.90;;;;;;;;;;5076016;28;24805;-48
2022/06/21 02:43:02;;;;;;;4.10;3.70;;;;;;;;;;5063330;28;24516;-47
2022/06/21 02:45:37;;;;;;;4.18;3.88;;;;;;;;;;5066016;28;24458;-46
2022/06/21 02:48:08;;;;;;;4.10;3.70;;;;;;;;;;5080597;28;24415;-48
2022/06/21 02:50:36;;;;;;;4.00;3.70;;;;;;;;;;5075381;28;24430;-46
2022/06/21 02:53:05;;;;;;;4.20;3.80;;;;;;;;;;5071024;28;24406;-45
2022/06/21 02:55:35;;;;;;;4.20;3.90;;;;;;;;;;5064723;28;24430;-46
2022/06/21 02:58:00;;;;;;;3.45;3.25;;;;;;;;;;5077350;28;24987;-48
2022/06/21 03:00:25;;;;;;;3.90;3.60;;;;;;;;;;5073162;28;25004;-47
2022/06/21 03:02:51;;;;;;;4.17;3.80;;;;;;;;;;5074429;28;24524;-47
2022/06/21 03:05:18;;;;;;;4.33;3.70;;;;;;;;;;5068055;28;24427;-48
2022/06/21 03:07:47;;;;;;;3.80;3.50;;;;;;;;;;5065158;28;24422;-47
2022/06/21 03:10:17;;;;;;;3.90;3.60;;;;;;;;;;5060520;28;24445;-48
2022/06/21 03:12:43;;;;;;;3.53;3.22;;;;;;;;;;5061985;28;24580;-49
2022/06/21 03:15:10;;;;;;;3.70;3.40;;;;;;;;;;5068769;28;24518;-47
2022/06/21 03:17:45;;;;;;;3.75;3.45;;;;;;;;;;5065524;28;24468;-48
2022/06/21 03:20:17;;;;;;;3.80;3.50;;;;;;;;;;5061909;28;25088;-47
2022/06/21 03:22:42;;;;;;;4.15;3.85;;;;;;;;;;5065427;28;24426;-47
2022/06/21 03:25:15;;;;;;;6.00;4.20;;;;;;;;;;5068980;28;24423;-48
2022/06/21 03:27:52;;;;;;;3.40;3.20;;;;;;;;;;5065657;28;25051;-46
2022/06/21 03:30:18;;;;;;;5.18;3.60;;;;;;;;;;5059960;28;24450;-47
2022/06/21 03:32:43;;;;;;;3.78;3.53;;;;;;;;;;5064828;28;24756;-47
2022/06/21 03:35:09;;;;;;;3.70;3.40;;;;;;;;;;5079496;28;26478;-46
2022/06/21 03:37:36;;;;;;;3.65;3.45;;;;;;;;;;5063663;28;24980;-48
2022/06/21 03:42:47;;;;;;;3.08;2.88;;;;;;;;;;5066354;28;24530;-48
2022/06/21 03:45:18;;;;;;;3.20;2.90;;;;;;;;;;5069814;28;24457;-47
2022/06/21 03:47:46;;;;;;;3.50;3.20;;;;;;;;;;5080294;28;24437;-48
2022/06/21 03:50:23;;;;;;;3.83;3.50;;;;;;;;;;5069140;28;24965;-48
2022/06/21 03:52:57;;;;;;;3.63;3.33;;;;;;;;;;5070176;28;24548;-48
2022/06/21 03:55:22;;;;;;;3.72;3.33;;;;;;;;;;5078545;28;25113;-48
2022/06/21 03:57:57;;;;;;;3.60;3.30;;;;;;;;;;5069538;28;24434;-48
2022/06/21 04:00:24;;;;;;;3.70;3.40;;;;;;;;;;5076678;28;24538;-48
2022/06/21 04:02:53;;;;;;;3.55;3.25;;;;;;;;;;5061329;28;24437;-48
2022/06/21 04:05:24;;;;;;;3.90;3.60;;;;;;;;;;5068092;28;24446;-47
2022/06/21 04:07:55;;;;;;;3.80;3.50;;;;;;;;;;5072532;28;24450;-48
2022/06/21 04:10:25;;;;;;;3.53;3.22;;;;;;;;;;5070933;28;24431;-48
2022/06/21 04:12:54;;;;;;;4.00;3.60;;;;;;;;;;5067304;28;24530;-47
2022/06/21 04:15:35;;;;;;;3.55;3.30;;;;;;;;;;5067767;28;24429;-47
2022/06/21 04:18:03;;;;;;;3.30;2.95;;;;;;;;;;5070722;28;24453;-47
2022/06/21 04:20:28;;;;;;;3.53;3.22;;;;;;;;;;5078658;28;24514;-48
2022/06/21 04:22:53;;;;;;;3.60;3.30;;;;;;;;;;5067246;28;24513;-47
2022/06/21 04:25:37;;;;;;;3.08;2.80;;;;;;;;;;5083185;28;24557;-48
2022/06/21 04:28:02;;;;;;;3.40;3.10;;;;;;;;;;5065908;28;24484;-47
2022/06/21 04:30:40;;;;;;;3.30;3.00;;;;;;;;;;5069700;28;24418;-48
2022/06/21 04:33:08;;;;;;;4.10;3.60;;;;;;;;;;5065179;28;24427;-48
2022/06/21 04:35:37;;;;;;;3.50;3.20;;;;;;;;;;5069525;28;24430;-48
2022/06/21 04:38:09;;;;;;;3.97;3.00;;;;;;;;;;5064934;28;24423;-48
2022/06/21 04:40:40;;;;;;;4.22;3.10;;;;;;;;;;5070049;28;24881;-48
2022/06/21 04:43:13;;;;;;;3.50;3.20;;;;;;;;;;5068485;28;24507;-49
2022/06/21 04:45:50;;;;;;;3.30;3.00;;;;;;;;;;5068591;28;24443;-48
2022/06/21 04:48:21;;;;;;;2.65;2.45;;;;;;;;;;5065240;28;24434;-49
2022/06/21 04:50:48;;;;;;;3.50;2.80;;;;;;;;;;5071552;28;24406;-49
2022/06/21 04:53:22;;;;;;;5.40;3.00;;;;;;;;;;5079253;28;24938;-49
2022/06/21 04:55:55;;;;;;;3.53;2.60;;;;;;;;;;5071518;28;24449;-48
2022/06/21 04:58:21;;;;;;;5.20;3.17;;;;;;;;;;5066558;28;25210;-48
2022/06/21 05:00:46;;;;;;;3.00;2.70;;;;;;;;;;5066490;28;24430;-48
2022/06/21 05:03:43;;;;;;;3.47;2.90;;;;;;;;;;5055988;28;24439;-48
2022/06/21 05:06:13;;;;;;;4.43;2.40;;;;;;;;;;5069981;28;24461;-49
2022/06/21 05:08:39;;;;;;;4.72;2.67;;;;;;;;;;5072648;28;24435;-47
2022/06/21 05:11:04;;;;;;;4.00;2.60;;;;;;;;;;5088788;28;24819;-48
2022/06/21 05:13:41;;;;;;;4.10;3.27;;;;;;;;;;5072984;28;24427;-48
2022/06/21 05:16:13;;;;;;;4.00;3.30;;;;;;;;;;5065635;28;24422;-47
2022/06/21 05:18:39;;;;;;;4.63;3.05;;;;;;;;;;5077873;28;24445;-47
2022/06/21 05:21:17;;;;;;;7.25;3.30;;;;;;;;;;5085706;28;24462;-47
2022/06/21 05:23:42;;;;;;;3.50;2.50;;;;;;;;;;5066584;28;24434;-46
2022/06/21 05:26:22;;;;;;;3.70;2.50;;;;;;;;;;5065130;28;24960;-47
2022/06/21 05:28:51;;;;;;;4.32;2.75;;;;;;;;;;5070891;28;24441;-46
2022/06/21 05:31:20;;;;;;;3.90;2.80;;;;;;;;;;5076417;28;24947;-47
2022/06/21 05:33:47;;;;;;;5.85;3.28;;;;;;;;;;5087182;28;25322;-47
2022/06/21 05:36:20;;;;;;;2.97;2.75;;;;;;;;;;5074887;28;24472;-47
2022/06/21 05:38:50;;;;;;;4.95;2.70;;;;;;;;;;5074388;28;24441;-47
2022/06/21 05:41:30;;;;;;;5.38;2.90;;;;;;;;;;5066792;28;24479;-46
2022/06/21 05:44:01;;;;;;;3.60;2.90;;;;;;;;;;5077905;28;24506;-47
2022/06/21 05:46:28;;;;;;;4.85;3.08;;;;;;;;;;5075263;28;24883;-47
2022/06/21 05:48:54;;;;;;;5.60;3.20;;;;;;;;;;5058651;28;24986;-47
2022/06/21 05:51:21;;;;;;;3.80;3.28;;;;;;;;;;5062346;28;25272;-47
2022/06/21 05:53:54;;;;;;;3.60;3.13;;;;;;;;;;5085752;28;24511;-46
2022/06/21 05:56:21;;;;;;;4.80;3.20;;;;;;;;;;5067258;28;24418;-46
2022/06/21 05:58:58;;;;;;;5.32;2.83;;;;;;;;;;5078491;28;24958;-46
2022/06/21 06:01:23;;;;;;;4.63;3.60;;;;;;;;;;5056082;28;24426;-46
2022/06/21 06:04:20;;;;;;;5.47;3.30;;;;;;;;;;5064935;28;24434;-46
2022/06/21 06:06:46;;;;;;;5.10;3.03;;;;;;;;;;5013160;28;24441;-47
2022/06/21 06:09:14;;;;;;;3.22;2.92;;;;;;;;;;5063616;28;24510;-46
2022/06/21 06:12:03;;;;;;;3.17;2.88;;;;;;;;;;5064237;28;24457;-46
2022/06/21 06:14:31;;;;;;;3.50;3.20;;;;;;;;;;5078398;28;24531;-46
2022/06/21 06:16:57;;;;;;;4.53;2.90;;;;;;;;;;5075227;28;24978;-46
2022/06/21 06:19:31;;;;;;;3.97;3.50;;;;;;;;;;5074984;28;24565;-46
2022/06/21 06:22:05;;;;;;;5.55;3.40;;;;;;;;;;5066867;28;24506;-46
2022/06/21 06:24:34;;;;;;;4.38;3.50;;;;;;;;;;5073957;28;24421;-47
2022/06/21 06:27:00;;;;;;;4.23;3.33;;;;;;;;;;5088026;28;24422;-46
2022/06/21 06:29:32;;;;;;;3.70;3.30;;;;;;;;;;5087960;28;24418;-47
2022/06/21 06:31:59;;;;;;;3.43;3.10;;;;;;;;;;5083980;28;24539;-47
2022/06/21 06:34:27;;;;;;;4.00;3.25;;;;;;;;;;5067382;28;24397;-46
2022/06/21 06:36:55;;;;;;;3.92;3.60;;;;;;;;;;5067600;28;24818;-46
2022/06/21 06:39:28;;;;;;;4.53;3.40;;;;;;;;;;5067542;28;24482;-46
2022/06/21 06:42:01;;;;;;;6.47;3.67;;;;;;;;;;5067410;28;24755;-46
2022/06/21 06:44:27;;;;;;;3.70;3.40;;;;;;;;;;5066141;28;24454;-46
2022/06/21 06:46:54;;;;;;;3.65;3.35;;;;;;;;;;5067345;28;24757;-47
2022/06/21 06:49:41;;;;;;;3.75;2.85;;;;;;;;;;5067276;28;24422;-47
2022/06/21 06:52:11;;;;;;;2.90;2.70;;;;;;;;;;5067463;28;24537;-47
2022/06/21 06:54:41;;;;;;;3.63;2.90;;;;;;;;;;5065663;28;24419;-48
2022/06/21 06:57:20;;;;;;;3.40;3.10;;;;;;;;;;5067221;28;24389;-47
2022/06/21 06:59:45;;;;;;;4.35;3.10;;;;;;;;;;5067350;28;24413;-47
2022/06/21 07:02:17;;;;;;;5.50;3.00;;;;;;;;;;5067107;28;24478;-48
2022/06/21 07:04:44;;;;;;;3.60;3.20;;;;;;;;;;5063905;28;24434;-47
2022/06/21 07:07:17;;;;;;;3.55;3.25;;;;;;;;;;5067397;28;24397;-47
2022/06/21 07:09:44;;;;;;;3.13;2.90;;;;;;;;;;5067193;28;24422;-47
2022/06/21 07:12:22;;;;;;;3.60;3.30;;;;;;;;;;5066362;28;25129;-47
2022/06/21 07:14:48;;;;;;;4.60;3.50;;;;;;;;;;5061408;28;24604;-46
2022/06/21 07:17:16;;;;;;;5.47;3.33;;;;;;;;;;5066319;28;24410;-48
2022/06/21 07:19:41;;;;;;;4.45;3.30;;;;;;;;;;5066450;28;24398;-47
2022/06/21 07:22:17;;;;;;;3.05;2.70;;;;;;;;;;5066933;28;24413;-45
2022/06/21 07:24:46;;;;;;;3.95;3.40;;;;;;;;;;5061168;28;24430;-47
2022/06/21 07:27:13;;;;;;;3.25;2.95;;;;;;;;;;5066387;28;24421;-47
2022/06/21 07:29:42;;;;;;;6.00;3.03;;;;;;;;;;5066758;28;24953;-46
2022/06/21 07:32:09;;;;;;;4.10;2.67;;;;;;;;;;5067151;28;24496;-47
2022/06/21 07:34:37;;;;;;;3.00;2.70;;;;;;;;;;5066096;28;24399;-47
2022/06/21 07:37:13;;;;;;;4.70;2.93;;;;;;;;;;5065694;28;24864;-46
2022/06/21 07:39:47;;;;;;;3.60;3.30;;;;;;;;;;5066905;28;25431;-47
2022/06/21 07:42:14;;;;;;;5.18;2.92;;;;;;;;;;5066850;28;24395;-46
2022/06/21 07:44:58;;;;;;;3.35;2.60;;;;;;;;;;5066600;28;24461;-47
2022/06/21 07:47:27;;;;;;;3.50;2.60;;;;;;;;;;5060907;28;24423;-47
2022/06/21 07:49:54;;;;;;;2.80;2.50;;;;;;;;;;5065721;28;25036;-46
2022/06/21 07:52:23;;;;;;;2.80;2.60;;;;;;;;;;5066725;28;24399;-47
2022/06/21 07:54:52;;;;;;;3.00;2.70;;;;;;;;;;5066831;28;24386;-47
2022/06/21 07:57:22;;;;;;;3.00;2.70;;;;;;;;;;5060709;28;24974;-46
2022/06/21 07:59:53;;;;;;;2.92;2.60;;;;;;;;;;5066670;28;24417;-47
2022/06/21 08:08:04;;;;;;;2.87;2.50;;;;;;;;;;5050122;28;24434;-46
2022/06/21 08:10:41;;;;;;;2.30;2.20;;;;;;;;;;5046707;28;25493;-47
2022/06/21 08:13:06;;;;;;;3.05;2.45;;;;;;;;;;5046746;28;24391;-47
2022/06/21 08:15:37;;;;;;;2.70;2.50;;;;;;;;;;5050383;28;24430;-45
2022/06/21 08:18:04;;;;;;;4.00;2.60;;;;;;;;;;5054302;28;24493;-47
2022/06/21 08:20:33;;;;;;;3.35;2.58;;;;;;;;;;5046516;28;24391;-47
2022/06/21 08:23:10;;;;;;;2.90;2.40;;;;;;;;;;5046235;28;24414;-47
2022/06/21 08:25:41;;;;;;;3.03;2.67;;;;;;;;;;5047292;28;24394;-46
2022/06/21 08:28:06;;;;;;;2.70;2.50;;;;;;;;;;5065237;28;24431;-46
2022/06/21 08:30:42;;;;;;;2.97;2.40;;;;;;;;;;5066417;28;24417;-47
2022/06/21 08:33:09;;;;;;;3.03;2.30;;;;;;;;;;5067622;28;24405;-47
2022/06/21 08:35:36;;;;;;;2.40;2.10;;;;;;;;;;5069651;28;24516;-47
2022/06/21 08:38:05;;;;;;;2.90;2.60;;;;;;;;;;5065455;28;24565;-47
2022/06/21 08:40:41;;;;;;;2.90;2.50;;;;;;;;;;5049963;28;24759;-47
2022/06/21 08:43:26;;;;;;;2.80;2.25;;;;;;;;;;5050078;28;24845;-46
2022/06/21 08:46:16;;;;;;;3.75;2.30;;;;;;;;;;5049486;28;24950;-46
2022/06/21 08:48:50;;;;;;;2.45;2.20;;;;;;;;;;5063352;28;24435;-47
2022/06/21 08:51:33;;;;;;;3.00;2.20;;;;;;;;;;5050224;28;24396;-46
2022/06/21 08:54:03;;;;;;;3.25;2.60;;;;;;;;;;5048816;28;24957;-46
2022/06/21 08:56:42;;;;;;;3.20;2.40;;;;;;;;;;5062092;28;24414;-47
2022/06/21 08:59:17;;;;;;;2.78;2.47;;;;;;;;;;5064905;28;24512;-46
2022/06/21 09:01:57;;;;;;;3.60;2.72;;;;;;;;;;5049586;28;24402;-46
2022/06/21 09:04:30;;;;;;;2.92;2.22;;;;;;;;;;5049571;28;24494;-46
2022/06/21 09:07:04;;;;;;;2.65;1.95;;;;;;;;;;5049606;28;24400;-47
2022/06/21 09:09:44;;;;;;;2.67;2.30;;;;;;;;;;5064198;28;24442;-47
2022/06/21 09:12:13;;;;;;;3.45;2.60;;;;;;;;;;5068622;28;24430;-47
2022/06/21 09:14:44;;;;;;;3.05;2.20;;;;;;;;;;5069495;28;24489;-47
2022/06/21 09:17:12;;;;;;;3.00;2.40;;;;;;;;;;5069272;28;24403;-47
2022/06/21 09:20:00;;;;;;;3.47;2.50;;;;;;;;;;5069220;28;24440;-47
2022/06/21 09:22:40;;;;;;;4.82;2.60;;;;;;;;;;5067736;28;24438;-47
2022/06/21 09:25:17;;;;;;;2.70;2.42;;;;;;;;;;5069455;28;24411;-47
2022/06/21 09:27:49;;;;;;;2.37;2.00;;;;;;;;;;5068661;28;24387;-49
2022/06/21 09:30:17;;;;;;;2.65;2.30;;;;;;;;;;5069316;28;24418;-48
2022/06/21 09:32:44;;;;;;;2.33;1.90;;;;;;;;;;5068253;28;24976;-45
2022/06/21 09:35:21;;;;;;;2.20;2.10;;;;;;;;;;5068839;28;24395;-46
2022/06/21 09:38:00;;;;;;;2.92;2.63;;;;;;;;;;5068455;28;24959;-46
2022/06/21 09:40:28;;;;;;;3.95;2.63;;;;;;;;;;5068727;28;24413;-46
2022/06/21 09:42:58;;;;;;;3.20;3.00;;;;;;;;;;5068442;28;24415;-48
2022/06/21 09:45:40;;;;;;;3.67;3.08;;;;;;;;;;5067352;28;24450;-47
2022/06/21 09:48:23;;;;;;;3.13;2.88;;;;;;;;;;5068742;28;24476;-47
2022/06/21 09:50:52;;;;;;;3.05;2.85;;;;;;;;;;5068392;28;24761;-47
2022/06/21 09:53:42;;;;;;;3.05;2.67;;;;;;;;;;5068497;28;24398;-47
2022/06/21 09:56:07;;;;;;;4.10;2.50;;;;;;;;;;5068384;28;25027;-47
2022/06/21 09:58:41;;;;;;;3.60;2.50;;;;;;;;;;5068054;28;24479;-46
2022/06/21 10:01:10;;;;;;;2.83;2.40;;;;;;;;;;5068357;28;24385;-46
2022/06/21 10:03:40;;;;;;;3.10;2.60;;;;;;;;;;5068130;28;24403;-47
2022/06/21 10:06:26;;;;;;;2.47;2.28;;;;;;;;;;5068214;28;24402;-46
2022/06/21 10:09:10;;;;;;;2.90;2.70;;;;;;;;;;5067970;28;24419;-47
2022/06/21 10:11:44;;;;;;;3.55;2.40;;;;;;;;;;5067641;28;24959;-47
2022/06/21 10:14:24;;;;;;;3.28;2.40;;;;;;;;;;5067693;28;24893;-46
2022/06/21 10:17:08;;;;;;;2.95;2.20;;;;;;;;;;5067662;28;24383;-46
2022/06/21 10:19:52;;;;;;;3.60;2.30;;;;;;;;;;5067716;28;24391;-47
2022/06/21 10:22:28;;;;;;;5.47;3.10;;;;;;;;;;5067922;28;24395;-47
2022/06/21 10:25:06;;;;;;;3.40;3.00;;;;;;;;;;5067590;28;24464;-47
2022/06/21 10:27:39;;;;;;;2.78;2.20;;;;;;;;;;5067524;28;24452;-47
2022/06/21 10:30:20;;;;;;;2.20;2.10;;;;;;;;;;5067463;28;24557;-47
2022/06/21 10:33:01;;;;;;;2.40;2.20;;;;;;;;;;5067518;28;24395;-46
2022/06/21 10:35:35;;;;;;;4.70;2.45;;;;;;;;;;5067691;28;24387;-46
2022/06/21 10:38:07;;;;;;;2.90;2.60;;;;;;;;;;5067595;28;24399;-46
2022/06/21 10:40:51;;;;;;;4.77;2.80;;;;;;;;;;5067319;28;24399;-47
2022/06/21 10:43:35;;;;;;;4.63;2.80;;;;;;;;;;5067229;28;24836;-47
2022/06/21 10:46:04;;;;;;;2.50;2.30;;;;;;;;;;5067276;28;24533;-47
2022/06/21 10:48:41;;;;;;;3.03;2.50;;;;;;;;;;5067396;28;24410;-47
2022/06/21 10:51:30;;;;;;;3.22;2.33;;;;;;;;;;5067356;28;24433;-47
2022/06/21 10:54:05;;;;;;;2.60;2.40;;;;;;;;;;5067096;28;24383;-46
2022/06/21 11:02:43;;;;;;;2.70;2.50;;;;;;;;;;5045758;28;25019;-47
2022/06/21 11:05:17;;;;;;;2.70;2.50;;;;;;;;;;5040781;28;24929;-47
2022/06/21 11:07:48;;;;;;;3.60;2.75;;;;;;;;;;5047199;28;24731;-47
2022/06/21 11:10:34;;;;;;;2.90;2.30;;;;;;;;;;5046722;28;24826;-46
2022/06/21 11:13:06;;;;;;;3.08;2.70;;;;;;;;;;5046950;28;24710;-47
2022/06/21 11:15:56;;;;;;;2.58;2.10;;;;;;;;;;5046059;28;24502;-47
2022/06/21 11:18:27;;;;;;;2.20;2.10;;;;;;;;;;5064274;28;24399;-46
2022/06/21 11:21:07;;;;;;;2.83;2.30;;;;;;;;;;5065825;28;24417;-46
2022/06/21 11:23:57;;;;;;;2.38;2.10;;;;;;;;;;5064815;28;24419;-46
2022/06/21 11:26:37;;;;;;;2.20;2.10;;;;;;;;;;5065002;28;24482;-46
2022/06/21 11:29:29;;;;;;;2.50;2.22;;;;;;;;;;5066628;28;24410;-46
2022/06/21 11:31:57;;;;;;;2.35;2.15;;;;;;;;;;5022079;28;24442;-47
2022/06/21 11:34:27;;;;;;;2.60;2.10;;;;;;;;;;5044859;28;24460;-49
2022/06/21 11:37:11;;;;;;;3.30;2.30;;;;;;;;;;5046530;28;24394;-46
2022/06/21 11:39:40;;;;;;;2.60;2.40;;;;;;;;;;5046524;28;24404;-46
2022/06/21 11:42:08;;;;;;;2.87;2.50;;;;;;;;;;5046519;28;24403;-47
2022/06/21 11:44:51;;;;;;;2.63;2.10;;;;;;;;;;5046385;28;24426;-47
2022/06/21 11:47:37;;;;;;;2.50;2.30;;;;;;;;;;5046499;28;24396;-47
2022/06/21 11:50:06;;;;;;;2.60;2.25;;;;;;;;;;5005334;28;24517;-47
2022/06/21 11:52:47;;;;;;;3.17;2.40;;;;;;;;;;5046436;28;24941;-47
2022/06/21 11:55:27;;;;;;;1.80;1.70;;;;;;;;;;5062563;28;24781;-46
2022/06/21 11:58:18;;;;;;;2.20;2.00;;;;;;;;;;5066296;28;24440;-47
2022/06/21 12:00:47;;;;;;;3.25;2.20;;;;;;;;;;5050175;28;24418;-47
2022/06/21 12:03:22;;;;;;;3.13;2.20;;;;;;;;;;5066380;28;24558;-46
2022/06/21 12:05:53;;;;;;;3.00;2.10;;;;;;;;;;5065868;28;24550;-47
2022/06/21 12:08:26;;;;;;;2.90;2.40;;;;;;;;;;5069026;28;24387;-47
2022/06/21 12:10:51;;;;;;;2.72;2.13;;;;;;;;;;5070042;28;24425;-46
2022/06/21 12:13:28;;;;;;;2.10;1.90;;;;;;;;;;5070115;28;24470;-46
2022/06/21 12:15:54;;;;;;;2.30;2.10;;;;;;;;;;5069987;28;24754;-46
2022/06/21 12:18:20;;;;;;;2.50;2.30;;;;;;;;;;5070055;28;24925;-46
2022/06/21 12:21:03;;;;;;;3.58;2.35;;;;;;;;;;5069852;28;24407;-47
2022/06/21 12:23:44;;;;;;;2.40;2.20;;;;;;;;;;5069843;28;24395;-46
2022/06/21 12:26:14;;;;;;;2.75;2.10;;;;;;;;;;5069758;28;24399;-47
2022/06/21 12:28:40;;;;;;;2.83;2.50;;;;;;;;;;5069744;28;24573;-46
2022/06/21 12:31:14;;;;;;;2.85;2.20;;;;;;;;;;5069505;28;24531;-47
2022/06/21 12:33:39;;;;;;;2.53;1.70;;;;;;;;;;5069928;28;24488;-48
2022/06/21 12:36:13;;;;;;;2.80;2.00;;;;;;;;;;5069468;28;24951;-46
2022/06/21 12:38:41;;;;;;;2.30;2.10;;;;;;;;;;5070017;28;24394;-47
2022/06/21 12:41:06;;;;;;;2.50;2.30;;;;;;;;;;5069527;28;24487;-46
2022/06/21 12:43:58;;;;;;;3.03;2.35;;;;;;;;;;5069563;28;24480;-47
2022/06/21 12:46:32;;;;;;;2.38;2.10;;;;;;;;;;5069705;28;24961;-47
2022/06/21 12:49:09;;;;;;;2.20;2.00;;;;;;;;;;5069214;28;24979;-47
2022/06/21 12:51:40;;;;;;;2.38;2.17;;;;;;;;;;5069343;28;24389;-47
2022/06/21 12:54:08;;;;;;;3.10;1.98;;;;;;;;;;5069023;28;24422;-46
2022/06/21 12:56:45;;;;;;;2.25;2.05;;;;;;;;;;5069267;28;24931;-47
2022/06/21 12:59:48;;;;;;;2.50;2.20;;;;;;;;;;5069274;28;24394;-47
2022/06/21 13:02:36;;;;;;;2.50;1.90;;;;;;;;;;5046238;28;24442;-46
2022/06/21 13:05:27;;;;;;;1.90;1.70;;;;;;;;;;5046584;28;24766;-47
2022/06/21 13:08:09;;;;;;;1.93;1.50;;;;;;;;;;5064141;28;24624;-46
2022/06/21 13:10:47;;;;;;;1.50;1.40;;;;;;;;;;5069182;28;24414;-47
2022/06/21 13:13:22;;;;;;;1.60;1.50;;;;;;;;;;5068989;28;24398;-47
2022/06/21 13:15:50;;;;;;;2.10;1.90;;;;;;;;;;5069260;28;24390;-48
2022/06/21 13:18:21;;;;;;;1.80;1.70;;;;;;;;;;5068916;28;24757;-48
2022/06/21 13:20:55;;;;;;;2.20;1.65;;;;;;;;;;5068799;28;24387;-47
2022/06/21 13:23:29;;;;;;;1.80;1.70;;;;;;;;;;5069078;28;24414;-46
2022/06/21 13:26:13;;;;;;;2.38;2.08;;;;;;;;;;5068533;28;24402;-47
2022/06/21 13:29:01;;;;;;;2.70;1.83;;;;;;;;;;5068682;28;24509;-46
2022/06/21 13:31:45;;;;;;;1.88;1.70;;;;;;;;;;5046350;28;25074;-45
2022/06/21 13:34:31;;;;;;;2.30;2.08;;;;;;;;;;5048267;28;25232;-45
2022/06/21 13:36:59;;;;;;;1.60;1.50;;;;;;;;;;5048386;28;24399;-46
2022/06/21 13:39:41;;;;;;;2.20;1.80;;;;;;;;;;5067065;28;25162;-46
2022/06/21 13:45:36;;;;;;;3.00;1.88;;;;;;;;;;5066414;28;25145;-48
2022/06/21 13:48:14;;;;;;;2.30;2.00;;;;;;;;;;4984728;28;24401;-48
2022/06/21 13:50:41;;;;;;;2.50;2.00;;;;;;;;;;4986347;28;24998;-46
2022/06/21 13:53:17;;;;;;;2.70;2.40;;;;;;;;;;5028920;28;24492;-45
2022/06/21 13:56:01;;;;;;;2.00;1.63;;;;;;;;;;5065682;28;24446;-47
2022/06/21 13:58:34;;;;;;;2.30;1.90;;;;;;;;;;5066516;28;24952;-46
2022/06/21 14:01:20;;;;;;;1.80;1.70;;;;;;;;;;5066540;28;24968;-47
2022/06/21 14:03:45;;;;;;;1.70;1.60;;;;;;;;;;5068129;28;24456;-46
2022/06/21 14:06:21;;;;;;;1.48;1.30;;;;;;;;;;5059227;28;24431;-45
2022/06/21 14:08:51;;;;;;;2.17;1.40;;;;;;;;;;5046287;28;24691;-46
2022/06/21 14:11:40;;;;;;;3.35;1.80;;;;;;;;;;5048016;28;24801;-47
2022/06/21 14:14:15;;;;;;;2.30;2.10;;;;;;;;;;5057395;28;24427;-46
2022/06/21 14:16:45;;;;;;;2.67;2.45;;;;;;;;;;5068178;28;24394;-46
2022/06/21 14:19:15;;;;;;;2.10;1.90;;;;;;;;;;5067382;28;25045;-46
2022/06/21 14:21:56;;;;;;;2.35;1.80;;;;;;;;;;5066427;28;25353;-46
2022/06/21 14:24:27;;;;;;;2.20;1.70;;;;;;;;;;5067683;28;24932;-46
2022/06/21 14:26:59;;;;;;;1.80;1.70;;;;;;;;;;5065894;28;24460;-46
2022/06/21 14:29:32;;;;;;;2.10;1.90;;;;;;;;;;5067376;28;24427;-47
2022/06/21 14:32:05;;;;;;;1.90;1.60;;;;;;;;;;5067201;28;25210;-48
2022/06/21 14:34:59;;;;;;;2.05;1.90;;;;;;;;;;5065509;28;24931;-46
2022/06/21 14:37:37;;;;;;;1.90;1.70;;;;;;;;;;4993861;28;24883;-46
2022/06/21 14:40:11;;;;;;;2.05;1.60;;;;;;;;;;5067387;28;24409;-46
2022/06/21 14:42:40;;;;;;;1.70;1.60;;;;;;;;;;5067214;28;24465;-47
2022/06/21 14:45:11;;;;;;;1.77;1.67;;;;;;;;;;5066903;28;24410;-47
2022/06/21 14:47:51;;;;;;;2.05;1.85;;;;;;;;;;5067257;28;24414;-46
2022/06/21 14:50:26;;;;;;;1.63;1.52;;;;;;;;;;5067050;28;24476;-47
2022/06/21 14:53:10;;;;;;;1.97;1.80;;;;;;;;;;5066684;28;24399;-46
2022/06/21 14:55:41;;;;;;;2.90;2.00;;;;;;;;;;5067037;28;24484;-46
2022/06/21 14:58:06;;;;;;;2.40;1.60;;;;;;;;;;5066970;28;24406;-47
2022/06/21 15:00:31;;;;;;;2.40;1.70;;;;;;;;;;5067155;28;24387;-48
2022/06/21 15:03:32;;;;;;;1.20;1.20;;;;;;;;;;5066712;28;24402;-47
2022/06/21 15:06:01;;;;;;;1.70;1.60;;;;;;;;;;5024267;28;24403;-47
2022/06/21 15:08:42;;;;;;;2.20;2.00;;;;;;;;;;5059189;28;24442;-47
2022/06/21 15:11:14;;;;;;;3.28;2.00;;;;;;;;;;5066460;28;24395;-47
2022/06/21 15:14:05;;;;;;;3.08;1.80;;;;;;;;;;5066761;28;25054;-47
2022/06/21 15:16:33;;;;;;;1.80;1.70;;;;;;;;;;5064153;28;24411;-47
2022/06/21 15:19:53;;;;;;;2.40;1.77;;;;;;;;;;5066831;28;24402;-47
2022/06/21 15:21:56;;;;;;;1.90;1.80;;;;;;;;;;5066485;28;24394;-48
2022/06/21 15:24:24;;;;;;;2.30;2.10;;;;;;;;;;5066877;28;24473;-47
2022/06/21 15:26:53;;;;;;;2.20;1.80;;;;;;;;;;5066356;28;24534;-47
2022/06/21 15:29:21;;;;;;;3.10;1.50;;;;;;;;;;5066482;28;24501;-47
2022/06/21 15:32:13;;;;;;;2.08;1.80;;;;;;;;;;5064481;28;24476;-47
2022/06/21 15:34:44;;;;;;;2.20;2.00;;;;;;;;;;5061061;28;24856;-46